createdAt,value
2023-01-22T00:00:12.829Z,2.60
2023-01-22T00:02:39.919Z,2.60
2023-01-22T00:05:07.495Z,2.60
2023-01-22T00:07:34.598Z,2.60
2023-01-22T00:10:01.604Z,2.70
2023-01-22T00:12:29.923Z,2.60
2023-01-22T00:14:58.046Z,2.60
2023-01-22T00:17:25.027Z,2.60
2023-01-22T00:19:52.110Z,2.70
2023-01-22T00:22:19.179Z,2.70
2023-01-22T00:24:46.001Z,2.60
2023-01-22T00:27:12.871Z,2.70
2023-01-22T00:29:41.065Z,2.60
2023-01-22T00:32:08.257Z,2.60
2023-01-22T00:34:35.396Z,2.60
2023-01-22T00:37:02.484Z,2.60
2023-01-22T00:39:29.395Z,2.60
2023-01-22T00:41:56.544Z,2.60
2023-01-22T00:44:23.629Z,2.70
2023-01-22T00:46:52.779Z,2.60
2023-01-22T00:49:19.795Z,2.60
2023-01-22T00:51:46.693Z,2.60
2023-01-22T00:54:13.889Z,2.60
2023-01-22T00:56:40.945Z,2.60
2023-01-22T00:59:10.510Z,2.60
2023-01-22T01:01:40.391Z,2.70
2023-01-22T01:04:07.636Z,2.90
2023-01-22T01:06:34.494Z,2.70
2023-01-22T01:09:02.704Z,2.70
2023-01-22T01:11:30.229Z,2.70
2023-01-22T01:13:57.248Z,2.70
2023-01-22T01:16:29.693Z,2.70
2023-01-22T01:19:07.440Z,2.60
2023-01-22T01:21:34.810Z,2.60
2023-01-22T01:24:02.155Z,2.60
2023-01-22T01:26:29.558Z,2.60
2023-01-22T01:28:56.612Z,2.60
2023-01-22T01:31:26.185Z,2.60
2023-01-22T01:33:53.778Z,2.60
2023-01-22T01:36:40.491Z,2.60
2023-01-22T01:39:11.437Z,2.60
2023-01-22T01:41:38.455Z,2.60
2023-01-22T01:44:27.431Z,2.60
2023-01-22T01:47:02.018Z,2.60
2023-01-22T01:49:36.736Z,2.60
2023-01-22T01:52:11.346Z,2.60
2023-01-22T01:54:40.489Z,2.60
2023-01-22T01:57:12.756Z,2.60
2023-01-22T01:59:39.919Z,2.60
2023-01-22T02:02:07.129Z,2.60
2023-01-22T02:04:34.376Z,2.50
2023-01-22T02:07:01.887Z,2.60
2023-01-22T02:09:29.030Z,2.80
2023-01-22T02:11:56.171Z,2.60
2023-01-22T02:14:29.616Z,2.60
2023-01-22T02:17:23.251Z,2.60
2023-01-22T02:19:50.364Z,2.50
2023-01-22T02:22:32.625Z,2.60
2023-01-22T02:25:01.100Z,2.50
2023-01-22T02:27:28.113Z,2.50
2023-01-22T02:29:55.138Z,2.50
2023-01-22T02:32:22.365Z,2.50
2023-01-22T02:34:49.540Z,2.50
2023-01-22T02:37:17.049Z,2.50
2023-01-22T02:39:44.141Z,2.40
2023-01-22T02:42:11.655Z,2.40
2023-01-22T02:44:38.710Z,2.40
2023-01-22T02:47:05.923Z,2.50
2023-01-22T02:49:33.044Z,2.40
2023-01-22T02:52:00.160Z,2.40
2023-01-22T02:54:27.326Z,2.60
2023-01-22T02:56:54.424Z,2.50
2023-01-22T02:59:21.296Z,2.50
2023-01-22T03:01:48.184Z,2.50
2023-01-22T03:04:15.279Z,2.50
2023-01-22T03:06:44.576Z,2.50
2023-01-22T03:09:13.328Z,2.60
2023-01-22T03:11:42.077Z,2.50
2023-01-22T03:14:27.897Z,2.50
2023-01-22T03:17:13.950Z,2.50
2023-01-22T03:19:59.392Z,2.50
2023-01-22T03:22:26.471Z,2.50
2023-01-22T03:24:53.705Z,2.50
2023-01-22T03:27:22.858Z,2.50
2023-01-22T03:29:51.093Z,2.50
2023-01-22T03:32:18.007Z,2.50
2023-01-22T03:34:45.065Z,2.50
2023-01-22T03:37:12.965Z,2.40
2023-01-22T03:39:40.562Z,2.50
2023-01-22T03:42:07.917Z,2.50
2023-01-22T03:44:34.939Z,2.50
2023-01-22T03:47:02.184Z,2.40
2023-01-22T03:49:29.295Z,2.50
2023-01-22T03:51:58.270Z,2.40
2023-01-22T03:54:25.385Z,2.50
2023-01-22T03:56:52.191Z,2.40
2023-01-22T03:59:19.157Z,2.40
2023-01-22T04:01:47.234Z,2.40
2023-01-22T04:04:15.171Z,2.40
2023-01-22T04:06:42.072Z,2.40
2023-01-22T04:09:09.168Z,2.40
2023-01-22T04:11:36.357Z,2.40
2023-01-22T04:14:03.203Z,2.40
2023-01-22T04:16:30.110Z,2.30
2023-01-22T04:18:57.198Z,2.50
2023-01-22T04:21:24.165Z,2.30
2023-01-22T04:23:52.477Z,2.40
2023-01-22T04:26:19.572Z,2.40
2023-01-22T04:28:46.480Z,2.40
2023-01-22T04:31:15.035Z,2.40
2023-01-22T04:33:43.038Z,2.40
2023-01-22T04:36:10.293Z,2.40
2023-01-22T04:38:37.256Z,2.40
2023-01-22T04:41:04.201Z,2.40
2023-01-22T04:43:31.405Z,2.40
2023-01-22T04:45:58.467Z,2.30
2023-01-22T04:48:25.547Z,2.40
2023-01-22T04:50:52.427Z,2.40
2023-01-22T04:53:19.222Z,2.40
2023-01-22T04:55:46.096Z,2.30
2023-01-22T04:58:12.923Z,2.40
2023-01-22T05:00:39.900Z,2.40
2023-01-22T05:03:06.944Z,2.40
2023-01-22T05:05:34.400Z,2.40
2023-01-22T05:08:01.649Z,2.30
2023-01-22T05:10:28.995Z,2.30
2023-01-22T05:12:56.087Z,2.40
2023-01-22T05:15:25.040Z,2.40
2023-01-22T05:17:54.421Z,2.30
2023-01-22T05:20:21.733Z,2.40
2023-01-22T05:22:49.122Z,2.30
2023-01-22T05:25:16.054Z,2.30
2023-01-22T05:27:42.985Z,2.30
2023-01-22T05:30:11.331Z,2.30
2023-01-22T05:32:38.401Z,2.30
2023-01-22T05:35:06.400Z,2.30
2023-01-22T05:37:33.366Z,2.30
2023-01-22T05:40:00.221Z,2.30
2023-01-22T05:42:27.009Z,2.30
2023-01-22T05:44:53.818Z,2.30
2023-01-22T05:47:20.698Z,2.30
2023-01-22T05:49:47.465Z,2.30
2023-01-22T05:52:14.353Z,2.30
2023-01-22T05:54:41.291Z,2.30
2023-01-22T05:57:08.449Z,2.30
2023-01-22T05:59:35.489Z,2.30
2023-01-22T06:02:02.525Z,2.30
2023-01-22T06:04:29.701Z,2.30
2023-01-22T06:06:56.828Z,2.20
2023-01-22T06:09:24.419Z,2.20
2023-01-22T06:11:51.815Z,2.20
2023-01-22T06:14:19.992Z,2.20
2023-01-22T06:16:47.011Z,2.30
2023-01-22T06:19:14.089Z,2.20
2023-01-22T06:21:43.655Z,2.20
2023-01-22T06:24:11.298Z,2.30
2023-01-22T06:26:38.328Z,2.20
2023-01-22T06:29:05.338Z,2.30
2023-01-22T06:31:32.839Z,2.30
2023-01-22T06:33:59.997Z,2.30
2023-01-22T06:36:27.549Z,2.20
2023-01-22T06:38:54.461Z,2.20
2023-01-22T06:41:21.315Z,2.20
2023-01-22T06:43:48.528Z,2.20
2023-01-22T06:46:15.598Z,2.20
2023-01-22T06:48:43.763Z,2.20
2023-01-22T06:51:11.430Z,2.30
2023-01-22T06:53:39.085Z,2.30
2023-01-22T06:56:06.643Z,2.30
2023-01-22T06:58:33.634Z,2.30
2023-01-22T07:01:05.169Z,2.30
2023-01-22T07:03:32.243Z,2.30
2023-01-22T07:06:01.817Z,2.30
2023-01-22T07:08:30.064Z,2.30
2023-01-22T07:10:57.155Z,2.30
2023-01-22T07:13:24.123Z,2.40
2023-01-22T07:15:51.647Z,2.30
2023-01-22T07:18:20.928Z,2.30
2023-01-22T07:20:48.088Z,2.30
2023-01-22T07:23:15.327Z,2.30
2023-01-22T07:25:42.386Z,2.30
2023-01-22T07:28:10.821Z,2.30
2023-01-22T07:30:39.117Z,2.30
2023-01-22T07:33:06.233Z,2.30
2023-01-22T07:35:33.289Z,2.60
2023-01-22T07:38:00.865Z,2.40
2023-01-22T07:40:28.315Z,2.40
2023-01-22T07:42:55.876Z,2.40
2023-01-22T07:45:24.691Z,2.40
2023-01-22T07:47:56.943Z,2.50
2023-01-22T07:50:26.197Z,2.50
2023-01-22T07:52:53.335Z,2.50
2023-01-22T07:55:20.601Z,2.50
2023-01-22T07:57:47.726Z,2.50
2023-01-22T08:00:16.383Z,2.40
2023-01-22T08:02:43.646Z,2.50
2023-01-22T08:05:14.415Z,2.50
2023-01-22T08:07:41.369Z,2.50
2023-01-22T08:10:09.642Z,2.50
2023-01-22T08:12:38.574Z,2.50
2023-01-22T08:15:06.004Z,2.50
2023-01-22T08:17:33.049Z,2.50
2023-01-22T08:19:59.967Z,2.50
2023-01-22T08:22:27.036Z,2.50
2023-01-22T08:24:54.258Z,2.60
2023-01-22T08:27:22.184Z,2.60
2023-01-22T08:29:50.013Z,2.50
2023-01-22T08:32:18.751Z,2.60
2023-01-22T08:34:45.804Z,2.60
2023-01-22T08:37:12.720Z,2.70
2023-01-22T08:39:39.558Z,2.60
2023-01-22T08:42:06.391Z,2.70
2023-01-22T08:44:33.239Z,2.60
2023-01-22T08:47:00.036Z,2.70
2023-01-22T08:49:26.952Z,2.60
2023-01-22T08:51:53.812Z,2.70
2023-01-22T08:54:20.647Z,2.70
2023-01-22T08:56:48.150Z,2.70
2023-01-22T08:59:16.136Z,2.70
2023-01-22T09:01:43.006Z,2.80
2023-01-22T09:04:10.931Z,2.70
2023-01-22T09:06:38.719Z,2.70
2023-01-22T09:09:06.949Z,2.70
2023-01-22T09:11:33.857Z,2.80
2023-01-22T09:14:00.710Z,2.80
2023-01-22T09:16:28.152Z,2.80
2023-01-22T09:18:55.245Z,2.80
2023-01-22T09:21:22.052Z,2.90
2023-01-22T09:23:48.898Z,2.90
2023-01-22T09:26:15.797Z,2.90
2023-01-22T09:28:42.698Z,2.90
2023-01-22T09:31:12.440Z,2.90
2023-01-22T09:33:40.127Z,3.00
2023-01-22T09:36:09.692Z,3.00
2023-01-22T09:38:36.811Z,3.00
2023-01-22T09:41:28.244Z,2.90
2023-01-22T09:44:00.375Z,2.90
2023-01-22T09:46:51.691Z,3.00
2023-01-22T09:49:21.823Z,3.00
2023-01-22T09:52:00.562Z,3.00
2023-01-22T09:54:29.509Z,3.00
2023-01-22T09:56:59.517Z,3.00
2023-01-22T09:59:48.467Z,3.00
2023-01-22T10:02:54.209Z,3.00
2023-01-22T10:05:30.221Z,3.00
2023-01-22T10:08:04.772Z,3.10
2023-01-22T10:10:33.354Z,3.10
2023-01-22T10:13:20.505Z,3.10
2023-01-22T10:15:49.268Z,3.10
2023-01-22T10:18:37.633Z,3.10
2023-01-22T10:21:11.266Z,3.10
2023-01-22T10:23:38.370Z,3.20
2023-01-22T10:26:15.236Z,3.20
2023-01-22T10:28:47.504Z,3.20
2023-01-22T10:31:27.515Z,3.30
2023-01-22T10:34:10.831Z,3.30
2023-01-22T10:36:37.849Z,3.20
2023-01-22T10:39:14.839Z,3.20
2023-01-22T10:41:43.166Z,3.30
2023-01-22T10:44:17.065Z,3.30
2023-01-22T10:46:46.427Z,3.30
2023-01-22T10:49:20.465Z,3.20
2023-01-22T10:51:59.824Z,3.20
2023-01-22T10:54:33.979Z,3.20
2023-01-22T10:57:27.039Z,3.30
2023-01-22T11:00:06.629Z,3.20
2023-01-22T11:02:35.534Z,3.20
2023-01-22T11:05:17.952Z,3.20
2023-01-22T11:07:47.842Z,3.20
2023-01-22T11:10:33.622Z,3.20
2023-01-22T11:13:30.301Z,3.20
2023-01-22T11:16:17.932Z,3.20
2023-01-22T11:18:59.678Z,3.20
2023-01-22T11:21:32.258Z,3.20
2023-01-22T11:24:36.518Z,3.20
2023-01-22T11:27:45.308Z,3.30
2023-01-22T11:30:38.562Z,3.30
2023-01-22T11:33:32.507Z,3.30
2023-01-22T11:36:07.704Z,3.30
2023-01-22T11:39:05.631Z,3.30
2023-01-22T11:42:00.024Z,3.30
2023-01-22T11:44:40.483Z,3.30
2023-01-22T11:47:13.661Z,3.30
2023-01-22T11:49:46.608Z,3.30
2023-01-22T11:52:26.795Z,3.30
2023-01-22T11:55:14.956Z,3.30
2023-01-22T11:57:55.610Z,3.30
2023-01-22T12:00:51.477Z,3.20
2023-01-22T12:03:45.174Z,3.20
2023-01-22T12:06:12.913Z,3.10
2023-01-22T12:08:53.029Z,3.10
2023-01-22T12:11:31.211Z,3.10
2023-01-22T12:14:12.924Z,3.10
2023-01-22T12:16:58.285Z,3.10
2023-01-22T12:19:43.372Z,3.10
2023-01-22T12:22:28.419Z,3.20
2023-01-22T12:25:01.979Z,3.10
2023-01-22T12:27:39.132Z,3.10
2023-01-22T12:30:28.175Z,3.10
2023-01-22T12:32:59.098Z,3.20
2023-01-22T12:35:30.301Z,3.10
2023-01-22T12:38:07.072Z,3.20
2023-01-22T12:40:52.397Z,3.20
2023-01-22T12:43:28.568Z,3.10
2023-01-22T12:46:07.694Z,3.10
2023-01-22T12:49:04.833Z,3.10
2023-01-22T12:51:41.021Z,3.10
2023-01-22T12:54:27.736Z,3.10
2023-01-22T12:56:57.775Z,3.00
2023-01-22T12:59:36.991Z,3.00
2023-01-22T13:02:36.691Z,3.00
2023-01-22T13:05:20.121Z,3.00
2023-01-22T13:07:47.866Z,3.00
2023-01-22T13:10:25.269Z,2.90
2023-01-22T13:13:30.687Z,2.90
2023-01-22T13:16:30.440Z,2.90
2023-01-22T13:19:00.521Z,2.90
2023-01-22T13:21:33.328Z,2.80
2023-01-22T13:24:05.350Z,2.80
2023-01-22T13:26:39.219Z,2.80
2023-01-22T13:29:20.819Z,2.80
2023-01-22T13:31:56.517Z,2.80
2023-01-22T13:34:24.445Z,2.80
2023-01-22T13:36:52.594Z,2.80
2023-01-22T13:39:31.726Z,2.80
2023-01-22T13:42:01.276Z,2.80
2023-01-22T13:44:42.090Z,2.80
2023-01-22T13:47:24.325Z,2.80
2023-01-22T13:49:51.231Z,2.80
2023-01-22T13:52:20.204Z,2.90
2023-01-22T13:54:55.337Z,2.80
2023-01-22T13:57:22.848Z,2.90
2023-01-22T13:59:58.201Z,2.70
2023-01-22T14:02:29.672Z,2.70
2023-01-22T14:04:56.890Z,2.70
2023-01-22T14:07:26.687Z,2.70
2023-01-22T14:09:54.729Z,2.70
2023-01-22T14:12:25.322Z,2.90
2023-01-22T14:14:53.148Z,2.70
2023-01-22T14:17:31.524Z,2.70
2023-01-22T14:19:58.753Z,2.70
2023-01-22T14:22:26.353Z,2.70
2023-01-22T14:24:53.542Z,2.70
2023-01-22T14:27:41.730Z,2.70
2023-01-22T14:30:10.038Z,2.70
2023-01-22T14:32:37.069Z,2.70
2023-01-22T14:35:04.468Z,2.70
2023-01-22T14:37:31.262Z,2.70
2023-01-22T14:39:58.174Z,2.70
2023-01-22T14:42:26.589Z,2.70
2023-01-22T14:44:53.699Z,2.70
2023-01-22T14:47:20.509Z,2.60
2023-01-22T14:49:47.705Z,2.60
2023-01-22T14:52:14.775Z,2.60
2023-01-22T14:54:41.617Z,2.70
2023-01-22T14:57:08.535Z,2.60
2023-01-22T14:59:35.664Z,3.00
2023-01-22T15:02:02.843Z,2.60
2023-01-22T15:04:30.011Z,2.60
2023-01-22T15:06:57.240Z,2.60
2023-01-22T15:09:24.227Z,2.60
2023-01-22T15:11:51.091Z,2.60
2023-01-22T15:14:17.933Z,2.60
2023-01-22T15:16:44.770Z,2.60
2023-01-22T15:19:11.932Z,2.70
2023-01-22T15:21:38.835Z,2.60
2023-01-22T15:24:06.093Z,2.60
2023-01-22T15:26:37.491Z,2.70
2023-01-22T15:29:06.071Z,2.70
2023-01-22T15:31:33.621Z,3.30
2023-01-22T15:34:02.190Z,2.60
2023-01-22T15:36:30.094Z,2.70
2023-01-22T15:38:57.182Z,2.70
2023-01-22T15:41:29.568Z,2.60
2023-01-22T15:44:02.704Z,2.60
2023-01-22T15:46:33.694Z,2.60
2023-01-22T15:49:01.052Z,2.60
2023-01-22T15:51:29.761Z,2.60
2023-01-22T15:53:59.376Z,2.50
2023-01-22T15:56:29.557Z,2.50
2023-01-22T15:58:57.364Z,2.80
2023-01-22T16:01:25.960Z,2.60
2023-01-22T16:03:53.442Z,2.60
2023-01-22T16:06:26.135Z,2.50
2023-01-22T16:08:55.749Z,2.50
2023-01-22T16:11:23.401Z,2.50
2023-01-22T16:13:50.386Z,2.50
2023-01-22T16:16:19.211Z,2.50
2023-01-22T16:18:48.008Z,2.60
2023-01-22T16:21:16.473Z,2.60
2023-01-22T16:23:45.764Z,2.60
2023-01-22T16:26:18.364Z,2.50
2023-01-22T16:28:46.521Z,2.50
2023-01-22T16:31:17.467Z,2.50
2023-01-22T16:33:47.879Z,2.50
2023-01-22T16:36:18.081Z,2.50
2023-01-22T16:43:45.626Z,2.50
2023-01-22T16:46:14.320Z,2.60
2023-01-22T16:51:18.016Z,2.40
2023-01-22T16:53:45.883Z,2.40
2023-01-22T16:56:13.682Z,2.40
2023-01-22T16:58:41.234Z,2.40
2023-01-22T17:01:11.714Z,2.30
2023-01-22T17:03:38.538Z,2.30
2023-01-22T17:06:05.742Z,3.40
2023-01-22T17:13:29.764Z,2.20
2023-01-22T17:18:24.420Z,2.20
2023-01-22T17:23:29.088Z,2.20
2023-01-22T17:25:55.948Z,3.50
2023-01-22T17:28:22.795Z,2.40
2023-01-22T17:30:50.049Z,2.10
2023-01-22T17:33:19.797Z,2.10
2023-01-22T17:35:46.839Z,2.10
2023-01-22T17:38:13.843Z,2.10
2023-01-22T17:40:40.644Z,2.10
2023-01-22T17:43:07.641Z,2.10
2023-01-22T17:45:38.276Z,2.10
2023-01-22T17:48:05.356Z,2.10
2023-01-22T17:50:32.514Z,2.10
2023-01-22T17:52:59.437Z,2.10
2023-01-22T17:55:29.007Z,2.30
2023-01-22T17:57:56.436Z,2.10
2023-01-22T18:00:23.382Z,3.20
2023-01-22T18:02:50.355Z,2.10
2023-01-22T18:05:17.568Z,2.10
2023-01-22T18:07:44.628Z,2.10
2023-01-22T18:10:13.520Z,2.70
2023-01-22T18:12:40.418Z,2.10
2023-01-22T18:15:07.571Z,2.10
2023-01-22T18:17:35.257Z,2.10
2023-01-22T18:20:03.474Z,2.10
2023-01-22T18:22:30.799Z,2.10
2023-01-22T18:24:59.135Z,2.10
2023-01-22T18:27:26.249Z,2.80
2023-01-22T18:29:53.026Z,2.10
2023-01-22T18:32:19.860Z,2.10
2023-01-22T18:34:46.946Z,2.10
2023-01-22T18:37:13.775Z,2.10
2023-01-22T18:39:40.847Z,2.10
2023-01-22T18:42:07.669Z,2.20
2023-01-22T18:44:34.501Z,2.00
2023-01-22T18:47:01.794Z,2.50
2023-01-22T18:49:29.053Z,2.20
2023-01-22T18:52:00.852Z,2.00
2023-01-22T18:54:29.086Z,2.00
2023-01-22T18:56:55.995Z,2.10
2023-01-22T18:59:22.844Z,2.10
2023-01-22T19:01:52.496Z,2.00
2023-01-22T19:04:21.958Z,2.00
2023-01-22T19:06:54.191Z,2.00
2023-01-22T19:09:21.441Z,2.00
2023-01-22T19:11:49.817Z,2.00
2023-01-22T19:14:19.571Z,2.00
2023-01-22T19:16:49.318Z,2.00
2023-01-22T19:19:16.903Z,2.00
2023-01-22T19:21:48.414Z,1.90
2023-01-22T19:24:18.617Z,2.00
2023-01-22T19:26:46.852Z,2.00
2023-01-22T19:29:17.433Z,2.00
2023-01-22T19:31:48.755Z,2.00
2023-01-22T19:34:23.676Z,1.90
2023-01-22T19:36:56.533Z,2.60
2023-01-22T19:39:25.684Z,2.10
2023-01-22T19:41:52.730Z,1.90
2023-01-22T19:44:19.696Z,2.00
2023-01-22T19:51:41.264Z,2.00
2023-01-22T19:56:37.876Z,2.10
2023-01-22T19:59:17.146Z,2.10
2023-01-22T20:01:48.576Z,2.10
2023-01-22T20:04:22.613Z,2.30
2023-01-22T20:06:51.916Z,2.10
2023-01-22T20:09:22.126Z,2.10
2023-01-22T20:11:54.924Z,2.10
2023-01-22T20:14:29.859Z,2.10
2023-01-22T20:17:01.363Z,2.10
2023-01-22T20:19:29.832Z,2.10
2023-01-22T20:21:57.045Z,2.20
2023-01-22T20:24:24.294Z,2.10
2023-01-22T20:26:54.540Z,2.30
2023-01-22T20:29:21.491Z,2.30
2023-01-22T20:31:51.966Z,2.10
2023-01-22T20:34:19.143Z,2.10
2023-01-22T20:36:46.155Z,2.10
2023-01-22T20:39:13.641Z,2.10
2023-01-22T20:41:40.870Z,2.10
2023-01-22T20:44:09.147Z,2.10
2023-01-22T20:46:37.568Z,2.10
2023-01-22T20:49:04.481Z,2.10
2023-01-22T20:51:31.481Z,2.20
2023-01-22T20:53:58.427Z,2.10
2023-01-22T20:56:31.656Z,2.10
2023-01-22T20:59:06.943Z,2.10
2023-01-22T21:01:34.664Z,2.10
2023-01-22T21:04:02.760Z,2.10
2023-01-22T21:06:32.002Z,2.10
2023-01-22T21:09:01.126Z,2.10
2023-01-22T21:11:32.633Z,2.10
2023-01-22T21:14:01.377Z,2.00
2023-01-22T21:16:31.293Z,2.10
2023-01-22T21:19:12.967Z,2.10
2023-01-22T21:21:39.785Z,2.00
2023-01-22T21:24:07.127Z,2.20
2023-01-22T21:26:34.294Z,2.10
2023-01-22T21:29:11.228Z,2.10
2023-01-22T21:31:38.323Z,2.00
2023-01-22T21:34:07.971Z,2.10
2023-01-22T21:36:48.834Z,2.10
2023-01-22T21:39:19.092Z,2.10
2023-01-22T21:41:46.107Z,2.10
2023-01-22T21:44:33.582Z,2.60
2023-01-22T21:47:01.053Z,2.00
2023-01-22T21:49:28.413Z,2.00
2023-01-22T21:52:00.883Z,2.50
2023-01-22T21:54:34.888Z,2.30
2023-01-22T21:57:02.460Z,2.00
2023-01-22T21:59:29.655Z,2.10
2023-01-22T22:01:57.155Z,2.10
2023-01-22T22:04:26.131Z,2.00
2023-01-22T22:06:53.746Z,2.50
2023-01-22T22:09:24.908Z,2.40
2023-01-22T22:11:55.973Z,2.00
2023-01-22T22:14:23.163Z,2.00
2023-01-22T22:16:50.491Z,2.00
2023-01-22T22:19:18.512Z,2.00
2023-01-22T22:21:45.663Z,2.10
2023-01-22T22:24:15.306Z,2.10
2023-01-22T22:26:42.190Z,2.10
2023-01-22T22:29:09.754Z,2.50
2023-01-22T22:31:37.505Z,2.30
2023-01-22T22:34:05.351Z,2.10
2023-01-22T22:36:33.155Z,2.40
2023-01-22T22:39:01.408Z,2.10
2023-01-22T22:41:30.993Z,2.30
2023-01-22T22:43:58.259Z,2.20
2023-01-22T22:46:28.422Z,2.20
2023-01-22T22:48:56.959Z,2.20
2023-01-22T22:51:33.101Z,2.20
2023-01-22T22:54:03.052Z,2.20
2023-01-22T22:56:30.947Z,2.20
2023-01-22T22:58:59.404Z,2.20
2023-01-22T23:01:28.093Z,2.20
2023-01-22T23:03:55.601Z,2.20
2023-01-22T23:06:26.323Z,2.20
2023-01-22T23:08:56.251Z,2.20
2023-01-22T23:11:29.282Z,2.10
2023-01-22T23:14:01.550Z,2.20
2023-01-22T23:16:31.682Z,2.20
2023-01-22T23:19:00.667Z,2.20
2023-01-22T23:21:28.666Z,2.10
2023-01-22T23:23:56.391Z,2.20
2023-01-22T23:26:29.983Z,2.30
2023-01-22T23:29:02.317Z,2.20
2023-01-22T23:31:31.909Z,2.20
2023-01-22T23:34:00.660Z,2.20
2023-01-22T23:36:27.767Z,2.20
2023-01-22T23:38:55.817Z,2.40
2023-01-22T23:41:23.656Z,2.10
2023-01-22T23:43:51.253Z,2.10
2023-01-22T23:46:24.478Z,2.20
2023-01-22T23:48:52.848Z,2.60
2023-01-22T23:51:20.282Z,2.10
2023-01-22T23:53:50.068Z,2.10
2023-01-22T23:56:18.144Z,2.10
2023-01-22T23:58:45.388Z,2.20
